Time;durP1;ratioP1;P1;durP2;ratioP2;P2;SDS_P1;SDS_P2;PMS_P1;PMS_P2;Temp;Humidity;BMP_temperature;BMP_pressure;BME280_temperature;BME280_humidity;BME280_pressure;Samples;Min_cycle;Max_cycle;Signal;HPM_P1;HPM_P2
2023/08/15 00:01:54;;;;;;;6.03;5.43;;;;;;;21.34;100.00;101078.69;5070909;28;20410;-83
2023/08/15 00:04:25;;;;;;;6.60;5.03;;;;;;;21.30;100.00;101045.34;5066487;28;20500;-82
2023/08/15 00:11:40;;;;;;;5.80;4.43;;;;;;;21.12;100.00;100950.31;5019831;28;20510;-82
2023/08/15 00:15:07;;;;;;;5.00;4.50;;;;;;;21.14;100.00;100952.84;4958525;29;20417;-84
2023/08/15 00:17:36;;;;;;;5.00;4.27;;;;;;;21.05;100.00;100951.69;4962257;28;20431;-83
2023/08/15 00:20:09;;;;;;;4.27;3.87;;;;;;;21.07;100.00;100958.53;4961886;29;20770;-84
2023/08/15 00:26:44;;;;;;;5.77;4.70;;;;;;;20.98;100.00;100932.66;4950628;29;20438;-83
2023/08/15 00:29:13;;;;;;;7.93;4.80;;;;;;;20.95;100.00;100910.38;4963567;29;20443;-83
2023/08/15 00:31:42;;;;;;;6.50;4.33;;;;;;;20.87;100.00;100892.44;4964275;29;20422;-83
2023/08/15 00:34:11;;;;;;;7.60;4.93;;;;;;;20.86;100.00;100888.06;4964643;29;20402;-83
2023/08/15 00:36:41;;;;;;;7.97;4.80;;;;;;;20.89;100.00;100903.19;4961460;28;20410;-83
2023/08/15 00:39:10;;;;;;;8.53;5.13;;;;;;;20.88;100.00;100910.63;4961854;29;21068;-83
2023/08/15 00:41:39;;;;;;;11.90;7.00;;;;;;;20.79;100.00;100924.06;4990433;28;20445;-83
2023/08/15 00:44:08;;;;;;;8.50;5.47;;;;;;;20.76;100.00;100948.53;5002385;28;20510;-84
2023/08/15 00:46:39;;;;;;;7.10;5.60;;;;;;;20.91;100.00;101013.78;5061365;28;20427;-83
2023/08/15 00:49:08;;;;;;;5.37;4.87;;;;;;;20.92;100.00;100983.25;5059556;28;20450;-83
2023/08/15 00:51:41;;;;;;;5.90;5.30;;;;;;;20.93;100.00;100984.91;5061208;28;20447;-83
2023/08/15 00:54:13;;;;;;;5.43;3.43;;;;;;;20.88;100.00;100951.88;5057253;28;20507;-82
2023/08/15 01:00:13;;;;;;;4.27;3.93;;;;;;;20.79;100.00;100924.06;5056750;28;20927;-84
2023/08/15 01:02:44;;;;;;;7.70;3.73;;;;;;;20.69;100.00;100931.44;5057978;28;20459;-83
2023/08/15 01:05:15;;;;;;;7.50;4.03;;;;;;;20.61;100.00;100951.22;5058743;28;20440;-83
2023/08/15 01:07:46;;;;;;;8.27;4.60;;;;;;;20.57;100.00;100963.84;5065310;28;20450;-84
2023/08/15 01:10:15;;;;;;;4.90;4.47;;;;;;;20.57;100.00;100969.34;5074958;28;20434;-84
2023/08/15 01:12:52;;;;;;;3.87;3.57;;;;;;;20.63;100.00;100971.00;5075746;28;20389;-84
2023/08/15 01:15:26;;;;;;;4.63;4.17;;;;;;;20.68;100.00;100971.84;5063195;28;20494;-84
2023/08/15 01:18:04;;;;;;;5.67;4.83;;;;;;;20.75;100.00;100977.13;5070635;28;20489;-82
2023/08/15 01:20:36;;;;;;;3.77;3.27;;;;;;;20.72;100.00;100966.69;5071812;28;20401;-82
2023/08/15 01:23:08;;;;;;;4.30;3.90;;;;;;;20.78;100.00;100968.31;5072915;28;20406;-83
2023/08/15 01:25:42;;;;;;;4.67;4.23;;;;;;;20.77;100.00;100958.41;5075657;28;20396;-83
2023/08/15 01:28:14;;;;;;;4.10;3.70;;;;;;;20.70;100.00;100935.84;5075988;28;20405;-83
2023/08/15 01:30:47;;;;;;;4.73;4.30;;;;;;;20.63;100.00;100932.50;5076630;28;20477;-83
2023/08/15 01:33:23;;;;;;;5.60;4.97;;;;;;;20.59;100.00;100932.22;5105914;28;20406;-83
2023/08/15 01:35:59;;;;;;;4.37;3.70;;;;;;;20.62;100.00;100925.38;5073793;28;20552;-83
2023/08/15 01:38:36;;;;;;;4.03;3.63;;;;;;;20.54;100.00;100923.13;5076135;28;20466;-82
2023/08/15 01:41:10;;;;;;;4.07;3.67;;;;;;;20.54;100.00;100925.88;5076640;28;20415;-83
2023/08/15 01:43:40;;;;;;;4.23;3.77;;;;;;;20.50;100.00;100924.75;5065533;28;20409;-83
2023/08/15 01:46:10;;;;;;;4.67;3.57;;;;;;;20.47;100.00;100928.88;5058652;28;20425;-83
2023/08/15 01:48:43;;;;;;;12.03;3.70;;;;;;;20.41;100.00;100929.94;5059329;28;20442;-84
2023/08/15 01:51:13;;;;;;;3.93;3.50;;;;;;;20.35;100.00;100929.06;5060073;28;20465;-84
2023/08/15 01:53:42;;;;;;;4.90;4.20;;;;;;;20.33;100.00;100924.94;5058571;28;20421;-83
2023/08/15 01:56:14;;;;;;;3.73;3.20;;;;;;;20.34;100.00;100929.31;5095432;28;20446;-84
2023/08/15 01:58:43;;;;;;;4.03;3.63;;;;;;;20.28;100.00;100922.94;5062378;28;20549;-82
2023/08/15 02:01:12;;;;;;;4.47;3.97;;;;;;;20.28;100.00;100911.94;5061968;28;20439;-83
2023/08/15 02:03:41;;;;;;;5.17;3.80;;;;;;;20.25;100.00;100912.50;5062917;28;20414;-82
2023/08/15 02:06:11;;;;;;;3.60;3.30;;;;;;;20.37;100.00;100904.91;5063097;28;20450;-83
2023/08/15 02:08:41;;;;;;;3.73;3.43;;;;;;;20.27;100.00;100904.81;5061618;28;20474;-83
2023/08/15 02:11:10;;;;;;;4.30;3.90;;;;;;;20.21;100.00;100903.13;5050983;28;20442;-83
2023/08/15 02:13:41;;;;;;;4.13;3.83;;;;;;;20.17;100.00;100893.75;5057573;28;20424;-83
2023/08/15 02:16:10;;;;;;;5.10;3.63;;;;;;;20.15;100.00;100893.19;5066170;28;20454;-82
2023/08/15 02:18:40;;;;;;;4.50;4.10;;;;;;;20.13;100.00;100884.41;5075013;28;20426;-83
2023/08/15 02:21:11;;;;;;;5.67;4.67;;;;;;;20.09;100.00;100885.19;5070219;28;20435;-83
2023/08/15 02:23:40;;;;;;;6.00;4.90;;;;;;;20.04;100.00;100883.25;5061430;28;20445;-83
2023/08/15 02:26:09;;;;;;;5.50;4.83;;;;;;;19.95;100.00;100879.31;5062560;28;20417;-82
2023/08/15 02:28:40;;;;;;;5.07;4.63;;;;;;;19.89;100.00;100880.41;5063449;28;20426;-83
2023/08/15 02:31:10;;;;;;;5.43;4.63;;;;;;;19.85;100.00;100871.00;5061785;28;20970;-84
2023/08/15 02:33:40;;;;;;;5.17;4.77;;;;;;;19.84;100.00;100869.38;5065325;28;20444;-83
2023/08/15 02:36:09;;;;;;;6.33;5.57;;;;;;;19.77;100.00;100863.28;5065299;28;20500;-84
2023/08/15 02:38:39;;;;;;;5.60;5.10;;;;;;;19.81;100.00;100856.97;5066607;28;20444;-83
2023/08/15 02:41:08;;;;;;;6.03;5.43;;;;;;;19.77;100.00;100849.53;5066440;28;20427;-83
2023/08/15 02:43:39;;;;;;;6.30;5.80;;;;;;;19.75;100.00;100851.75;5061372;28;20403;-83
2023/08/15 02:46:08;;;;;;;8.90;5.50;;;;;;;19.76;100.00;100850.63;5077574;28;20392;-83
2023/08/15 02:48:37;;;;;;;5.93;5.40;;;;;;;19.69;100.00;100848.13;5075764;28;20467;-83
2023/08/15 02:51:07;;;;;;;7.30;6.60;;;;;;;19.62;100.00;100846.69;5059933;28;20433;-83
2023/08/15 02:53:37;;;;;;;6.60;5.90;;;;;;;19.52;100.00;100848.25;5060509;28;20916;-83
2023/08/15 02:56:06;;;;;;;6.73;6.03;;;;;;;19.55;100.00;100852.41;5092906;28;20518;-82
2023/08/15 02:58:35;;;;;;;8.97;7.00;;;;;;;19.68;100.00;100840.16;5059654;28;20501;-83
2023/08/15 03:01:06;;;;;;;7.17;6.50;;;;;;;19.72;100.00;100833.03;5059837;28;20398;-83
2023/08/15 03:03:36;;;;;;;7.50;6.80;;;;;;;19.69;100.00;100845.38;5061350;28;20759;-83
2023/08/15 03:06:07;;;;;;;6.63;6.03;;;;;;;19.64;100.00;100841.78;5058220;28;20422;-83
2023/08/15 03:08:36;;;;;;;7.80;6.50;;;;;;;19.62;100.00;100835.69;5059249;28;20456;-83
2023/08/15 03:11:05;;;;;;;7.60;6.90;;;;;;;19.58;100.00;100842.81;5060212;28;20494;-82
2023/08/15 03:13:34;;;;;;;7.47;6.73;;;;;;;19.47;100.00;100844.63;5059925;28;20465;-83
2023/08/15 03:16:05;;;;;;;7.77;7.07;;;;;;;19.42;100.00;100842.66;5059120;28;20467;-82
2023/08/15 03:18:35;;;;;;;9.03;8.13;;;;;;;19.40;100.00;100847.59;5058934;28;20517;-84
2023/08/15 03:21:08;;;;;;;9.87;8.97;;;;;;;19.45;100.00;100855.06;5058351;28;20842;-84
2023/08/15 03:23:38;;;;;;;10.07;8.50;;;;;;;19.46;100.00;100862.22;5060106;28;20402;-83
2023/08/15 03:26:08;;;;;;;8.07;7.27;;;;;;;19.44;100.00;100873.44;5058338;28;20449;-84
2023/08/15 03:28:38;;;;;;;7.53;6.93;;;;;;;19.40;100.00;100877.78;5058118;28;20425;-82
2023/08/15 03:31:10;;;;;;;8.37;7.57;;;;;;;19.35;100.00;100877.72;5058371;28;20437;-83
2023/08/15 03:33:44;;;;;;;9.53;7.60;;;;;;;19.35;100.00;100883.22;5058399;28;20406;-83
2023/08/15 03:36:13;;;;;;;11.03;8.20;;;;;;;19.35;100.00;100885.97;5058434;28;20983;-83
2023/08/15 03:38:42;;;;;;;13.20;7.47;;;;;;;19.39;100.00;100892.59;5059052;28;20426;-84
2023/08/15 03:41:12;;;;;;;8.93;8.03;;;;;;;19.43;100.00;100898.38;5061088;28;20435;-82
2023/08/15 03:43:41;;;;;;;9.17;8.27;;;;;;;19.48;100.00;100902.03;5059290;28;20413;-82
2023/08/15 03:46:13;;;;;;;17.70;8.83;;;;;;;19.40;100.00;100893.41;5057654;28;20424;-82
2023/08/15 03:48:42;;;;;;;8.57;6.83;;;;;;;19.40;100.00;100902.47;5056116;28;20445;-82
2023/08/15 03:51:12;;;;;;;9.37;8.40;;;;;;;19.42;100.00;100897.53;5058463;28;20542;-83
2023/08/15 03:53:55;;;;;;;10.80;9.70;;;;;;;19.36;100.00;100904.09;5060432;28;20402;-83
2023/08/15 03:56:24;;;;;;;11.50;8.67;;;;;;;19.37;100.00;100902.97;5061558;28;20395;-83
2023/08/15 03:58:54;;;;;;;11.47;9.20;;;;;;;19.43;100.00;100910.19;5063546;28;20530;-82
2023/08/15 04:01:25;;;;;;;9.67;8.70;;;;;;;19.58;100.00;100911.44;5063097;28;20410;-84
2023/08/15 04:03:54;;;;;;;10.03;9.10;;;;;;;19.53;100.00;100910.31;5061420;28;20418;-83
2023/08/15 04:06:24;;;;;;;11.00;9.90;;;;;;;19.47;100.00;100930.56;5060282;28;20986;-84
2023/08/15 04:08:53;;;;;;;9.90;8.77;;;;;;;19.57;100.00;100921.59;5043585;28;20845;-83
2023/08/15 04:11:22;;;;;;;11.53;8.20;;;;;;;19.55;100.00;100928.44;5065836;28;20452;-82
2023/08/15 04:13:52;;;;;;;10.50;9.37;;;;;;;19.53;100.00;100928.69;5063066;28;20417;-81
2023/08/15 04:16:21;;;;;;;11.23;10.07;;;;;;;19.50;100.00;100938.28;5062711;28;20482;-82
2023/08/15 04:18:52;;;;;;;10.57;9.00;;;;;;;19.49;100.00;100953.09;5063170;28;20505;-83
2023/08/15 04:21:21;;;;;;;10.87;9.87;;;;;;;19.48;100.00;100945.94;5077877;28;20480;-83
2023/08/15 04:23:50;;;;;;;11.30;10.00;;;;;;;19.51;100.00;100956.38;5077973;28;20386;-83
2023/08/15 04:26:20;;;;;;;11.73;10.23;;;;;;;20.06;100.00;100957.97;5077798;28;20382;-82
2023/08/15 04:28:49;;;;;;;16.30;10.57;;;;;;;20.96;100.00;100954.09;5077224;28;20434;-82
2023/08/15 04:31:19;;;;;;;12.03;10.93;;;;;;;21.41;100.00;100958.13;5063801;28;20462;-82
2023/08/15 04:33:48;;;;;;;10.37;9.33;;;;;;;21.83;100.00;100961.50;5070676;28;20406;-82
2023/08/15 04:36:19;;;;;;;9.37;8.30;;;;;;;21.85;100.00;100953.75;5077361;28;20397;-83
2023/08/15 04:38:48;;;;;;;9.80;8.90;;;;;;;21.60;100.00;100965.59;5064303;28;20969;-83
2023/08/15 04:41:18;;;;;;;10.13;9.23;;;;;;;21.35;100.00;100961.97;5061221;28;20425;-83
2023/08/15 04:43:48;;;;;;;11.67;10.60;;;;;;;21.30;100.00;100965.53;5067643;28;20448;-83
2023/08/15 04:46:17;;;;;;;9.00;8.20;;;;;;;21.55;100.00;100962.81;5091738;28;20429;-83
2023/08/15 04:48:47;;;;;;;10.63;9.63;;;;;;;22.64;100.00;100957.81;5086700;28;20449;-83
2023/08/15 04:51:18;;;;;;;9.67;8.73;;;;;;;23.91;100.00;100969.03;5063489;28;20443;-82
2023/08/15 04:53:47;;;;;;;9.53;8.07;;;;;;;25.03;93.21;100969.53;5065024;28;20394;-83
2023/08/15 04:56:16;;;;;;;7.10;6.40;;;;;;;26.09;86.85;100972.72;5056387;28;20394;-84
2023/08/15 04:58:46;;;;;;;8.87;8.17;;;;;;;26.51;80.99;100971.69;5071425;28;20768;-83
2023/08/15 05:01:16;;;;;;;9.90;6.83;;;;;;;26.99;77.62;100970.19;5072906;28;20439;-83
2023/08/15 05:03:45;;;;;;;6.80;6.30;;;;;;;26.94;75.97;100977.78;5074894;28;20407;-82
2023/08/15 05:06:15;;;;;;;7.30;6.70;;;;;;;27.28;74.53;100974.56;5076032;28;20384;-84
2023/08/15 05:08:45;;;;;;;6.90;5.90;;;;;;;27.50;72.85;100971.84;5071255;28;20474;-84
2023/08/15 05:11:15;;;;;;;8.10;5.73;;;;;;;27.54;70.70;100982.06;5074254;28;20475;-84
2023/08/15 05:13:44;;;;;;;9.13;7.57;;;;;;;27.60;70.61;100982.75;5073833;28;20443;-84
2023/08/15 05:16:14;;;;;;;7.17;6.30;;;;;;;27.83;69.37;100989.16;5075173;28;20444;-83
2023/08/15 05:18:44;;;;;;;7.53;6.00;;;;;;;28.45;67.79;100984.53;5075899;28;20455;-82
2023/08/15 05:21:15;;;;;;;6.97;6.07;;;;;;;28.65;65.34;100988.72;5075943;28;20425;-82
2023/08/15 05:23:46;;;;;;;11.17;7.50;;;;;;;28.12;66.87;100985.97;5075252;28;20465;-83
2023/08/15 05:26:15;;;;;;;7.67;6.97;;;;;;;25.70;76.43;100981.38;5074502;28;20485;-83
2023/08/15 05:28:44;;;;;;;6.87;6.03;;;;;;;24.22;87.69;100973.19;5076267;28;20442;-83
2023/08/15 05:31:15;;;;;;;9.10;7.60;;;;;;;23.45;95.49;100971.28;5080319;28;20442;-83
2023/08/15 05:33:45;;;;;;;8.07;7.27;;;;;;;22.96;100.00;100970.13;5078674;28;20459;-84
2023/08/15 05:36:15;;;;;;;8.23;7.20;;;;;;;22.45;100.00;100982.41;5079173;28;20405;-83
2023/08/15 05:38:45;;;;;;;10.80;6.80;;;;;;;22.27;100.00;100977.50;5080362;28;20487;-83
2023/08/15 05:41:16;;;;;;;8.93;8.00;;;;;;;22.27;100.00;100971.97;5079212;28;20456;-83
2023/08/15 05:43:45;;;;;;;15.60;9.57;;;;;;;22.04;100.00;100987.97;5080890;28;20462;-82
2023/08/15 05:46:14;;;;;;;10.57;9.00;;;;;;;22.16;100.00;100987.69;5078854;28;20442;-82
2023/08/15 05:48:44;;;;;;;8.00;7.30;;;;;;;22.08;100.00;100980.78;5080720;28;20431;-83
2023/08/15 05:51:13;;;;;;;9.90;7.47;;;;;;;22.09;100.00;100993.47;5080134;28;20412;-83
2023/08/15 05:53:43;;;;;;;7.93;7.23;;;;;;;22.19;100.00;100992.63;5113917;28;20577;-82
2023/08/15 05:56:14;;;;;;;7.40;6.57;;;;;;;22.05;100.00;100997.06;5080847;28;20479;-82
2023/08/15 05:58:44;;;;;;;8.03;7.33;;;;;;;22.18;100.00;100990.16;5080689;28;20453;-82
2023/08/15 06:01:13;;;;;;;8.10;7.30;;;;;;;22.16;100.00;100995.97;5079983;28;20691;-83
2023/08/15 06:03:43;;;;;;;7.90;7.10;;;;;;;22.23;100.00;100996.50;5080203;28;20423;-83
2023/08/15 06:06:23;;;;;;;9.20;7.83;;;;;;;22.40;100.00;101005.31;5077212;28;20434;-83
2023/08/15 06:08:53;;;;;;;6.87;6.17;;;;;;;22.51;100.00;100995.88;5080431;28;20478;-84
2023/08/15 06:11:25;;;;;;;7.93;7.23;;;;;;;22.62;100.00;100990.34;5080083;28;20413;-83
2023/08/15 06:13:54;;;;;;;9.10;8.30;;;;;;;22.67;100.00;100993.94;5079823;28;20461;-83
2023/08/15 06:16:23;;;;;;;7.67;7.07;;;;;;;22.88;100.00;100987.28;5079584;28;20459;-83
2023/08/15 06:18:53;;;;;;;7.93;7.13;;;;;;;22.86;100.00;100995.00;5079795;28;20728;-85
2023/08/15 06:21:22;;;;;;;10.13;6.57;;;;;;;22.88;100.00;100994.72;5080241;28;20423;-83
2023/08/15 06:23:51;;;;;;;6.83;6.13;;;;;;;22.85;100.00;100996.09;5081699;28;20442;-83
2023/08/15 06:26:21;;;;;;;9.03;7.10;;;;;;;22.91;100.00;100996.91;5106097;28;20438;-84
2023/08/15 06:28:51;;;;;;;11.37;7.40;;;;;;;23.11;100.00;100993.25;5080418;28;20455;-83
2023/08/15 06:31:21;;;;;;;7.10;6.50;;;;;;;23.25;99.70;100988.75;5079633;28;20411;-83
2023/08/15 06:33:50;;;;;;;8.87;5.57;;;;;;;23.24;98.12;100989.88;5078229;28;20451;-83
2023/08/15 06:36:19;;;;;;;6.80;6.20;;;;;;;23.27;98.65;100987.38;5079957;28;20419;-83
2023/08/15 06:38:51;;;;;;;11.73;5.63;;;;;;;23.31;97.44;100982.94;5080123;28;20491;-82
2023/08/15 06:41:21;;;;;;;6.53;5.43;;;;;;;23.36;96.11;100985.69;5079152;28;20440;-83
2023/08/15 06:43:53;;;;;;;7.67;6.53;;;;;;;23.57;96.30;100991.94;5079328;28;20445;-83
2023/08/15 06:46:22;;;;;;;11.70;8.23;;;;;;;23.63;94.21;100988.00;5079938;28;20422;-84
2023/08/15 06:48:52;;;;;;;7.00;5.93;;;;;;;23.70;93.64;100996.81;5079648;28;20451;-83
2023/08/15 06:51:21;;;;;;;6.20;5.70;;;;;;;23.78;92.58;101007.25;5079065;28;20447;-84
2023/08/15 06:53:52;;;;;;;6.80;5.87;;;;;;;23.76;94.35;101012.25;5078104;28;20463;-83
2023/08/15 06:56:22;;;;;;;6.67;5.60;;;;;;;23.93;93.75;101016.53;5069906;28;20443;-83
2023/08/15 06:59:01;;;;;;;8.00;5.93;;;;;;;24.16;92.62;101007.50;5088548;28;20453;-84
2023/08/15 07:01:34;;;;;;;6.33;5.70;;;;;;;24.11;89.91;101004.78;5064785;28;20431;-84
2023/08/15 07:04:04;;;;;;;5.50;5.10;;;;;;;24.27;89.97;101008.28;5044389;28;20429;-83
2023/08/15 07:06:33;;;;;;;8.63;7.87;;;;;;;24.36;88.01;101001.81;5059023;28;20431;-83
2023/08/15 07:09:06;;;;;;;8.90;6.53;;;;;;;24.45;87.75;101002.84;5065208;28;20465;-84
2023/08/15 07:11:35;;;;;;;8.67;6.13;;;;;;;24.54;86.91;101001.09;5067143;28;20491;-84
2023/08/15 07:22:28;;;;;;;8.30;5.87;;;;;;;24.85;86.58;101003.53;5045603;28;20404;-86
2023/08/15 07:24:58;;;;;;;5.93;4.77;;;;;;;24.91;84.06;100996.84;5053627;28;20922;-84
2023/08/15 07:27:27;;;;;;;6.50;5.63;;;;;;;25.00;83.19;100992.28;5065581;28;20446;-84
2023/08/15 07:29:56;;;;;;;5.73;5.23;;;;;;;25.07;83.71;100999.13;5065058;28;20431;-85
2023/08/15 07:32:28;;;;;;;5.70;5.20;;;;;;;25.25;83.02;101005.00;5064423;28;20439;-83
2023/08/15 07:34:57;;;;;;;5.90;5.30;;;;;;;25.36;81.82;101010.13;5064907;28;20441;-83
2023/08/15 07:37:28;;;;;;;5.63;5.20;;;;;;;25.53;81.55;101012.34;5064851;28;20459;-84
2023/08/15 07:39:58;;;;;;;6.63;5.97;;;;;;;25.75;79.96;101015.41;5062941;28;20458;-83
2023/08/15 07:42:28;;;;;;;12.20;10.97;;;;;;;25.83;79.21;101011.94;5064246;28;20449;-83
2023/08/15 07:44:57;;;;;;;5.97;5.33;;;;;;;25.81;77.99;101016.13;5063172;28;20446;-83
2023/08/15 07:47:27;;;;;;;4.23;3.93;;;;;;;25.85;78.36;101003.34;5064190;28;20471;-85
2023/08/15 07:50:15;;;;;;;5.80;5.10;;;;;;;25.97;78.96;100995.34;5087031;28;20816;-84
2023/08/15 07:52:47;;;;;;;7.30;5.77;;;;;;;26.07;78.96;101002.69;5058007;28;20506;-84
2023/08/15 07:55:16;;;;;;;4.93;4.50;;;;;;;26.11;75.19;101006.50;5042533;28;20413;-84
2023/08/15 07:57:45;;;;;;;6.00;5.40;;;;;;;26.27;77.54;101013.47;5058973;28;20937;-84
2023/08/15 08:00:15;;;;;;;6.80;5.20;;;;;;;26.45;75.80;101003.44;5059262;28;20435;-83
2023/08/15 08:02:45;;;;;;;6.20;5.60;;;;;;;26.53;73.92;101002.75;5059378;28;20436;-84
2023/08/15 08:05:15;;;;;;;6.20;5.60;;;;;;;26.63;73.77;101002.53;5059862;28;20409;-84
2023/08/15 08:07:46;;;;;;;9.00;8.20;;;;;;;26.82;71.87;101015.19;5059203;28;20536;-84
2023/08/15 08:10:15;;;;;;;10.83;9.87;;;;;;;26.74;71.56;101015.91;5062614;28;20452;-84
2023/08/15 08:12:45;;;;;;;6.67;6.07;;;;;;;26.78;71.87;101013.34;5073555;28;20504;-85
2023/08/15 08:15:15;;;;;;;13.00;11.80;;;;;;;26.99;72.04;101022.13;5051688;28;20464;-84
2023/08/15 08:17:44;;;;;;;7.40;5.50;;;;;;;27.05;71.08;101027.28;5060381;28;20456;-85
2023/08/15 08:20:15;;;;;;;11.63;10.53;;;;;;;27.25;70.76;101021.28;5059069;28;20452;-84
2023/08/15 08:22:47;;;;;;;6.40;5.80;;;;;;;27.31;69.18;101022.00;5062297;28;20933;-84
2023/08/15 08:25:18;;;;;;;9.10;7.43;;;;;;;27.32;71.00;101033.94;5058019;28;20939;-84
2023/08/15 08:27:48;;;;;;;6.20;5.70;;;;;;;27.38;69.31;101041.03;5063428;28;20455;-85
2023/08/15 08:30:19;;;;;;;9.40;6.37;;;;;;;27.48;69.25;101022.19;5059734;28;20992;-84
2023/08/15 08:32:49;;;;;;;5.23;4.70;;;;;;;27.69;70.36;101025.38;5060279;28;20455;-84
2023/08/15 08:35:19;;;;;;;8.93;5.33;;;;;;;27.72;67.53;101030.28;5052597;28;20473;-84
2023/08/15 08:37:49;;;;;;;5.43;4.93;;;;;;;27.73;68.52;101031.94;5059622;28;20487;-83
2023/08/15 08:40:18;;;;;;;7.37;6.57;;;;;;;27.91;65.82;101028.16;5052002;28;20429;-84
2023/08/15 08:42:48;;;;;;;8.07;6.33;;;;;;;28.13;66.93;101040.47;5063318;28;20433;-85
2023/08/15 08:45:19;;;;;;;6.63;5.93;;;;;;;28.20;66.78;101038.88;5061228;28;20446;-84
2023/08/15 08:48:05;;;;;;;7.20;6.50;;;;;;;28.31;64.92;101033.88;5058531;28;20812;-84
2023/08/15 08:50:35;;;;;;;6.70;6.20;;;;;;;28.38;65.77;101035.06;5061181;28;20436;-84
2023/08/15 08:53:06;;;;;;;6.90;6.30;;;;;;;28.56;64.68;101043.53;5060933;28;20514;-86
2023/08/15 08:55:41;;;;;;;8.80;8.00;;;;;;;28.43;64.62;101053.59;5055627;28;20434;-87
2023/08/15 08:58:13;;;;;;;9.10;6.30;;;;;;;28.57;65.38;101059.91;5060633;28;20976;-85
2023/08/15 09:00:44;;;;;;;6.83;6.23;;;;;;;28.81;65.88;101059.56;5060460;28;20510;-85
2023/08/15 09:03:18;;;;;;;7.80;7.20;;;;;;;29.01;63.93;101066.53;5092274;28;20466;-83
2023/08/15 09:05:48;;;;;;;12.50;11.20;;;;;;;28.94;64.15;101067.84;5062133;28;20955;-84
2023/08/15 09:08:18;;;;;;;7.83;7.00;;;;;;;29.01;62.96;101063.75;5054432;28;21001;-84
2023/08/15 09:10:47;;;;;;;8.40;6.20;;;;;;;29.10;63.96;101068.22;5063195;28;20439;-86
2023/08/15 09:13:23;;;;;;;7.77;7.00;;;;;;;29.31;63.45;101076.84;5059458;28;20506;-84
2023/08/15 09:15:56;;;;;;;7.40;6.70;;;;;;;29.44;63.11;101075.91;5061393;28;20917;-85
2023/08/15 09:18:26;;;;;;;7.47;6.87;;;;;;;29.64;62.48;101072.50;5062605;28;20470;-84
2023/08/15 09:20:56;;;;;;;8.40;7.60;;;;;;;29.56;61.94;101067.75;5071448;28;20407;-85
2023/08/15 09:23:28;;;;;;;10.70;9.07;;;;;;;29.33;61.58;101053.09;5073783;28;20431;-85
2023/08/15 09:26:00;;;;;;;7.20;6.70;;;;;;;29.20;62.81;101054.00;5076859;28;20419;-85
2023/08/15 09:28:42;;;;;;;7.83;7.23;;;;;;;29.26;62.27;101057.47;5077043;28;20442;-85
2023/08/15 09:31:12;;;;;;;8.17;7.47;;;;;;;29.42;61.85;101058.69;5077235;28;20412;-86
2023/08/15 09:33:44;;;;;;;9.87;9.07;;;;;;;29.69;60.11;101066.75;5076893;28;20411;-87
2023/08/15 09:36:16;;;;;;;9.47;8.47;;;;;;;29.72;60.63;101063.34;5076243;28;20533;-85
2023/08/15 09:38:46;;;;;;;10.10;9.13;;;;;;;30.05;61.12;101051.72;5076904;28;20431;-85
2023/08/15 09:41:16;;;;;;;10.07;9.17;;;;;;;29.97;59.44;101044.16;5076557;28;20785;-85
2023/08/15 09:43:52;;;;;;;9.47;8.60;;;;;;;30.32;59.06;101045.78;5076163;28;20465;-86
2023/08/15 09:46:22;;;;;;;8.27;7.23;;;;;;;30.24;58.55;101043.81;5056814;28;20400;-86
2023/08/15 09:48:52;;;;;;;10.03;9.10;;;;;;;30.34;58.39;101048.25;5072818;28;20427;-84
2023/08/15 09:51:21;;;;;;;8.70;7.90;;;;;;;30.33;58.93;101058.59;5076697;28;20407;-84
2023/08/15 09:53:53;;;;;;;11.27;9.57;;;;;;;30.40;59.03;101058.09;5075844;28;20447;-84
2023/08/15 09:56:22;;;;;;;12.80;9.50;;;;;;;30.72;59.00;101062.31;5076792;28;20392;-85
2023/08/15 09:58:51;;;;;;;9.13;8.33;;;;;;;30.09;58.57;101055.50;5076454;28;20435;-85
2023/08/15 10:01:26;;;;;;;9.90;9.00;;;;;;;30.08;60.52;101039.91;5075752;28;20412;-85
2023/08/15 10:03:58;;;;;;;9.60;8.70;;;;;;;30.33;58.95;101052.19;5075024;28;20427;-84
2023/08/15 10:06:27;;;;;;;10.47;8.80;;;;;;;30.18;59.13;101045.13;5076403;28;20435;-84
2023/08/15 10:08:58;;;;;;;9.53;8.60;;;;;;;30.21;59.13;101042.50;5076313;28;20469;-85
2023/08/15 10:11:40;;;;;;;10.23;9.47;;;;;;;29.83;59.47;101038.72;5060594;28;20439;-83
2023/08/15 10:14:12;;;;;;;15.40;9.13;;;;;;;29.96;60.34;101035.00;5056569;28;20404;-84
2023/08/15 10:16:41;;;;;;;10.57;9.57;;;;;;;30.02;59.65;101035.63;5075010;28;20453;-85
2023/08/15 10:19:15;;;;;;;9.73;9.03;;;;;;;30.19;60.78;101046.78;5080221;28;20423;-85
2023/08/15 10:21:50;;;;;;;9.80;8.80;;;;;;;30.23;59.43;101037.41;5079638;28;20425;-85
2023/08/15 10:24:22;;;;;;;11.73;10.63;;;;;;;30.39;60.61;101023.78;5078314;28;20458;-83
2023/08/15 10:26:54;;;;;;;10.43;9.43;;;;;;;30.25;60.11;101014.78;5076939;28;20496;-84
2023/08/15 10:29:23;;;;;;;11.47;10.47;;;;;;;29.98;61.60;100995.59;5078074;28;20435;-84
2023/08/15 10:32:00;;;;;;;10.27;9.57;;;;;;;29.61;60.31;100997.03;5078679;28;20427;-84
2023/08/15 10:34:34;;;;;;;11.23;10.30;;;;;;;29.45;63.35;100999.50;5077167;28;20439;-84
2023/08/15 10:37:28;;;;;;;9.63;8.83;;;;;;;29.24;64.36;100988.09;5072627;28;20930;-84
2023/08/15 10:40:11;;;;;;;12.17;11.17;;;;;;;29.23;64.75;100985.66;5066490;28;20442;-83
2023/08/15 10:43:07;;;;;;;12.77;11.57;;;;;;;28.98;66.10;100980.84;5070476;28;20913;-84
2023/08/15 10:45:37;;;;;;;13.20;12.10;;;;;;;29.26;64.64;100974.66;5076763;28;20439;-84
2023/08/15 10:48:07;;;;;;;11.33;10.53;;;;;;;29.36;66.18;100979.16;5075676;28;20454;-84
2023/08/15 10:50:37;;;;;;;12.13;11.13;;;;;;;29.15;67.74;100981.69;5062512;28;20416;-84
2023/08/15 10:53:07;;;;;;;11.73;10.80;;;;;;;29.34;65.69;100981.44;5079747;28;20416;-84
2023/08/15 10:55:39;;;;;;;12.60;11.60;;;;;;;29.89;65.05;100986.41;5079451;28;20463;-85
2023/08/15 10:58:10;;;;;;;12.83;10.83;;;;;;;30.01;62.01;100979.03;5079470;28;20423;-85
2023/08/15 11:00:41;;;;;;;10.80;9.87;;;;;;;30.33;59.38;100994.38;5079420;28;20419;-84
2023/08/15 11:03:11;;;;;;;11.10;10.10;;;;;;;30.55;61.25;100999.75;5065843;28;20463;-84
2023/08/15 11:05:40;;;;;;;11.33;10.10;;;;;;;30.39;58.50;101006.19;5060768;28;20838;-84
2023/08/15 11:08:18;;;;;;;10.57;9.73;;;;;;;30.30;58.80;100999.81;5063342;28;20467;-85
2023/08/15 11:10:50;;;;;;;15.00;11.70;;;;;;;30.53;58.56;101002.06;5066235;28;20427;-85
2023/08/15 11:13:19;;;;;;;12.00;10.93;;;;;;;30.54;57.49;101009.31;5063331;28;20419;-85
2023/08/15 11:15:48;;;;;;;8.73;8.03;;;;;;;30.46;55.65;101007.34;5064087;28;20463;-85
2023/08/15 11:18:22;;;;;;;9.83;8.87;;;;;;;30.81;55.74;101010.00;5068987;28;20489;-85
2023/08/15 11:20:52;;;;;;;8.30;7.60;;;;;;;31.23;52.87;101013.75;5066175;28;20431;-83
2023/08/15 11:23:22;;;;;;;8.83;8.03;;;;;;;31.30;52.78;101014.06;5062836;28;20471;-84
2023/08/15 11:25:52;;;;;;;7.50;6.80;;;;;;;31.06;51.27;101006.31;5045582;28;20475;-84
2023/08/15 11:28:22;;;;;;;8.33;7.53;;;;;;;31.12;52.21;101012.53;5070145;28;20443;-84
2023/08/15 11:31:06;;;;;;;9.47;8.67;;;;;;;31.18;52.58;101011.19;5069313;28;20447;-84
2023/08/15 11:33:51;;;;;;;12.03;9.60;;;;;;;31.26;53.49;101001.91;5072114;28;20424;-84
2023/08/15 11:36:22;;;;;;;10.47;9.60;;;;;;;31.40;53.14;101003.31;5072046;28;20462;-84
2023/08/15 11:38:52;;;;;;;11.73;9.23;;;;;;;31.43;51.53;101011.00;5074442;28;20447;-84
2023/08/15 11:41:22;;;;;;;8.60;7.70;;;;;;;31.24;50.65;101010.63;5074177;28;20427;-84
2023/08/15 11:43:51;;;;;;;8.10;7.30;;;;;;;31.11;51.74;101013.69;5074555;28;20435;-86
2023/08/15 11:46:20;;;;;;;8.83;8.13;;;;;;;31.24;51.38;101005.03;5074520;28;20423;-84
2023/08/15 11:48:50;;;;;;;8.03;7.53;;;;;;;31.35;51.22;101011.88;5076157;28;20474;-84
2023/08/15 11:51:20;;;;;;;8.20;7.43;;;;;;;31.38;49.87;101016.78;5071892;28;20428;-84
2023/08/15 11:53:51;;;;;;;10.50;8.40;;;;;;;31.43;51.66;101016.59;5066695;28;20431;-84
2023/08/15 11:56:21;;;;;;;8.93;8.03;;;;;;;31.49;51.80;101012.44;5059464;28;20471;-84
2023/08/15 11:58:51;;;;;;;8.87;8.07;;;;;;;31.65;51.94;101021.09;5065884;28;20494;-85